Terminal Aerodrome Forecast
Issued by NWS Blacksburg, VA

Current Version | Previous Version | Text Only | Print | Product List | Glossary Off
Versions: 1 2 3 4 5 6 7 8 9 10 11 12 13 14 15 16 17 18 19 20 21 22

000
FTUS41 KRNK 290418 AAB
TAFBLF
TAF AMD
KBLF 290418Z 2904/2924 27006KT 3SM -SHRA BR OVC002
     FM290700 28005KT 5SM -SHRA OVC009
     FM291400 29007KT P6SM OVC025
     FM291900 29007KT P6SM VCSH SCT025 BKN040=

USA.gov is the U.S. government's official web portal to all federal, state and local government web resources and services.